sensor_id;sensor_type;location;lat;lon;timestamp;temperature;humidity
52889;DHT22;41413;52.770;6.892;2022-09-21T00:01:07;9.30;99.90
52889;DHT22;41413;52.770;6.892;2022-09-21T00:03:36;9.40;99.90
52889;DHT22;41413;52.770;6.892;2022-09-21T00:06:04;9.30;99.90
52889;DHT22;41413;52.770;6.892;2022-09-21T00:08:32;9.40;99.90
52889;DHT22;41413;52.770;6.892;2022-09-21T00:10:58;9.40;99.90
52889;DHT22;41413;52.770;6.892;2022-09-21T00:13:26;9.40;99.90
52889;DHT22;41413;52.770;6.892;2022-09-21T00:15:56;9.40;99.90
52889;DHT22;41413;52.770;6.892;2022-09-21T00:18:24;9.30;99.90
52889;DHT22;41413;52.770;6.892;2022-09-21T00:20:51;9.30;99.90
52889;DHT22;41413;52.770;6.892;2022-09-21T00:23:18;9.30;99.90
52889;DHT22;41413;52.770;6.892;2022-09-21T00:25:45;9.30;99.90
52889;DHT22;41413;52.770;6.892;2022-09-21T00:28:12;9.30;99.90
52889;DHT22;41413;52.770;6.892;2022-09-21T00:30:39;9.20;99.90
52889;DHT22;41413;52.770;6.892;2022-09-21T00:33:05;9.10;99.90
52889;DHT22;41413;52.770;6.892;2022-09-21T00:35:32;9.10;99.90
52889;DHT22;41413;52.770;6.892;2022-09-21T00:38:00;9.10;99.90
52889;DHT22;41413;52.770;6.892;2022-09-21T00:40:30;9.00;99.90
52889;DHT22;41413;52.770;6.892;2022-09-21T00:43:14;9.00;99.90
52889;DHT22;41413;52.770;6.892;2022-09-21T00:45:42;9.00;99.90
52889;DHT22;41413;52.770;6.892;2022-09-21T00:48:10;9.00;99.90
52889;DHT22;41413;52.770;6.892;2022-09-21T00:50:41;9.00;99.90
52889;DHT22;41413;52.770;6.892;2022-09-21T00:53:09;9.00;99.90
52889;DHT22;41413;52.770;6.892;2022-09-21T00:55:41;9.00;99.90
52889;DHT22;41413;52.770;6.892;2022-09-21T00:58:12;9.00;99.90
52889;DHT22;41413;52.770;6.892;2022-09-21T01:00:41;9.00;99.90
52889;DHT22;41413;52.770;6.892;2022-09-21T01:03:11;8.90;99.90
52889;DHT22;41413;52.770;6.892;2022-09-21T01:05:38;8.80;99.90
52889;DHT22;41413;52.770;6.892;2022-09-21T01:08:06;8.80;99.90
52889;DHT22;41413;52.770;6.892;2022-09-21T01:22:31;8.60;99.90
52889;DHT22;41413;52.770;6.892;2022-09-21T01:25:29;8.70;99.90
52889;DHT22;41413;52.770;6.892;2022-09-21T01:28:21;8.70;99.90
52889;DHT22;41413;52.770;6.892;2022-09-21T01:30:50;8.60;99.90
52889;DHT22;41413;52.770;6.892;2022-09-21T01:33:22;8.50;99.90
52889;DHT22;41413;52.770;6.892;2022-09-21T01:35:55;8.60;99.90
52889;DHT22;41413;52.770;6.892;2022-09-21T01:38:27;8.60;99.90
52889;DHT22;41413;52.770;6.892;2022-09-21T01:40:58;8.60;99.90
52889;DHT22;41413;52.770;6.892;2022-09-21T01:43:33;8.50;99.90
52889;DHT22;41413;52.770;6.892;2022-09-21T01:46:02;8.50;99.90
52889;DHT22;41413;52.770;6.892;2022-09-21T01:48:35;8.40;99.90
52889;DHT22;41413;52.770;6.892;2022-09-21T01:51:07;8.40;99.90
52889;DHT22;41413;52.770;6.892;2022-09-21T01:53:40;8.40;99.90
52889;DHT22;41413;52.770;6.892;2022-09-21T01:56:35;8.30;99.90
52889;DHT22;41413;52.770;6.892;2022-09-21T02:01:55;8.30;99.90
52889;DHT22;41413;52.770;6.892;2022-09-21T02:04:23;8.30;99.90
52889;DHT22;41413;52.770;6.892;2022-09-21T02:06:50;8.30;99.90
52889;DHT22;41413;52.770;6.892;2022-09-21T02:09:17;8.30;99.90
52889;DHT22;41413;52.770;6.892;2022-09-21T02:11:44;8.20;99.90
52889;DHT22;41413;52.770;6.892;2022-09-21T02:14:21;8.20;99.90
52889;DHT22;41413;52.770;6.892;2022-09-21T02:20:23;8.20;99.90
52889;DHT22;41413;52.770;6.892;2022-09-21T02:23:07;8.10;99.90
52889;DHT22;41413;52.770;6.892;2022-09-21T02:28:25;8.10;99.90
52889;DHT22;41413;52.770;6.892;2022-09-21T02:31:13;8.10;99.90
52889;DHT22;41413;52.770;6.892;2022-09-21T02:37:01;8.00;99.90
52889;DHT22;41413;52.770;6.892;2022-09-21T02:39:14;7.90;99.90
52889;DHT22;41413;52.770;6.892;2022-09-21T02:42:20;7.90;99.90
52889;DHT22;41413;52.770;6.892;2022-09-21T02:44:51;7.90;99.90
52889;DHT22;41413;52.770;6.892;2022-09-21T02:50:15;7.90;99.90
52889;DHT22;41413;52.770;6.892;2022-09-21T02:52:45;7.90;99.90
52889;DHT22;41413;52.770;6.892;2022-09-21T02:55:13;7.90;99.90
52889;DHT22;41413;52.770;6.892;2022-09-21T02:57:40;7.90;99.90
52889;DHT22;41413;52.770;6.892;2022-09-21T03:00:08;7.90;99.90
52889;DHT22;41413;52.770;6.892;2022-09-21T03:02:40;7.90;99.90
52889;DHT22;41413;52.770;6.892;2022-09-21T03:05:10;7.70;99.90
52889;DHT22;41413;52.770;6.892;2022-09-21T03:07:36;7.70;99.90
52889;DHT22;41413;52.770;6.892;2022-09-21T03:10:04;7.80;99.90
52889;DHT22;41413;52.770;6.892;2022-09-21T03:12:32;7.70;99.90
52889;DHT22;41413;52.770;6.892;2022-09-21T03:14:59;7.70;99.90
52889;DHT22;41413;52.770;6.892;2022-09-21T03:17:25;7.70;99.90
52889;DHT22;41413;52.770;6.892;2022-09-21T03:19:53;7.70;99.90
52889;DHT22;41413;52.770;6.892;2022-09-21T03:22:22;7.70;99.90
52889;DHT22;41413;52.770;6.892;2022-09-21T03:24:49;7.60;99.90
52889;DHT22;41413;52.770;6.892;2022-09-21T03:27:18;7.70;99.90
52889;DHT22;41413;52.770;6.892;2022-09-21T03:29:46;7.60;99.90
52889;DHT22;41413;52.770;6.892;2022-09-21T03:32:13;7.60;99.90
52889;DHT22;41413;52.770;6.892;2022-09-21T03:34:40;7.60;99.90
52889;DHT22;41413;52.770;6.892;2022-09-21T03:37:10;7.60;99.90
52889;DHT22;41413;52.770;6.892;2022-09-21T03:39:36;7.50;99.90
52889;DHT22;41413;52.770;6.892;2022-09-21T03:42:03;7.40;99.90
52889;DHT22;41413;52.770;6.892;2022-09-21T03:44:30;7.40;99.90
52889;DHT22;41413;52.770;6.892;2022-09-21T03:46:56;7.40;99.90
52889;DHT22;41413;52.770;6.892;2022-09-21T03:49:23;7.30;99.90
52889;DHT22;41413;52.770;6.892;2022-09-21T03:51:50;7.40;99.90
52889;DHT22;41413;52.770;6.892;2022-09-21T03:54:17;7.40;99.90
52889;DHT22;41413;52.770;6.892;2022-09-21T03:56:43;7.40;99.90
52889;DHT22;41413;52.770;6.892;2022-09-21T03:59:10;7.30;99.90
52889;DHT22;41413;52.770;6.892;2022-09-21T04:01:40;7.30;99.90
52889;DHT22;41413;52.770;6.892;2022-09-21T04:04:07;7.30;99.90
52889;DHT22;41413;52.770;6.892;2022-09-21T04:06:34;7.30;99.90
52889;DHT22;41413;52.770;6.892;2022-09-21T04:09:00;7.30;99.90
52889;DHT22;41413;52.770;6.892;2022-09-21T04:11:29;7.20;99.90
52889;DHT22;41413;52.770;6.892;2022-09-21T04:13:56;7.20;99.90
52889;DHT22;41413;52.770;6.892;2022-09-21T04:16:23;7.20;99.90
52889;DHT22;41413;52.770;6.892;2022-09-21T04:18:50;7.20;99.90
52889;DHT22;41413;52.770;6.892;2022-09-21T04:21:18;7.20;99.90
52889;DHT22;41413;52.770;6.892;2022-09-21T04:23:45;7.20;99.90
52889;DHT22;41413;52.770;6.892;2022-09-21T04:26:26;7.10;99.90
52889;DHT22;41413;52.770;6.892;2022-09-21T04:28:53;7.10;99.90
52889;DHT22;41413;52.770;6.892;2022-09-21T04:31:22;7.10;99.90
52889;DHT22;41413;52.770;6.892;2022-09-21T04:33:53;7.10;99.90
52889;DHT22;41413;52.770;6.892;2022-09-21T04:36:21;7.10;99.90
52889;DHT22;41413;52.770;6.892;2022-09-21T04:38:49;7.10;99.90
52889;DHT22;41413;52.770;6.892;2022-09-21T04:41:17;7.00;99.90
52889;DHT22;41413;52.770;6.892;2022-09-21T04:43:45;7.00;99.90
52889;DHT22;41413;52.770;6.892;2022-09-21T04:46:14;7.00;99.90
52889;DHT22;41413;52.770;6.892;2022-09-21T04:48:41;7.00;99.90
52889;DHT22;41413;52.770;6.892;2022-09-21T04:51:09;7.00;99.90
52889;DHT22;41413;52.770;6.892;2022-09-21T04:53:37;7.00;99.90
52889;DHT22;41413;52.770;6.892;2022-09-21T04:56:06;7.00;99.90
52889;DHT22;41413;52.770;6.892;2022-09-21T04:58:33;7.00;99.90
52889;DHT22;41413;52.770;6.892;2022-09-21T05:01:00;6.90;99.90
52889;DHT22;41413;52.770;6.892;2022-09-21T05:03:27;6.90;99.90
52889;DHT22;41413;52.770;6.892;2022-09-21T05:05:55;6.90;99.90
52889;DHT22;41413;52.770;6.892;2022-09-21T05:08:24;6.90;99.90
52889;DHT22;41413;52.770;6.892;2022-09-21T05:11:14;6.80;99.90
52889;DHT22;41413;52.770;6.892;2022-09-21T05:13:41;6.80;99.90
52889;DHT22;41413;52.770;6.892;2022-09-21T05:16:08;6.80;99.90
52889;DHT22;41413;52.770;6.892;2022-09-21T05:18:35;6.80;99.90
52889;DHT22;41413;52.770;6.892;2022-09-21T05:21:03;6.80;99.90
52889;DHT22;41413;52.770;6.892;2022-09-21T05:23:30;6.80;99.90
52889;DHT22;41413;52.770;6.892;2022-09-21T05:25:58;6.80;99.90
52889;DHT22;41413;52.770;6.892;2022-09-21T05:28:25;6.80;99.90
52889;DHT22;41413;52.770;6.892;2022-09-21T05:31:03;6.70;99.90
52889;DHT22;41413;52.770;6.892;2022-09-21T05:34:05;6.80;99.90
52889;DHT22;41413;52.770;6.892;2022-09-21T05:39:15;6.80;99.90
52889;DHT22;41413;52.770;6.892;2022-09-21T05:41:42;6.90;99.90
52889;DHT22;41413;52.770;6.892;2022-09-21T05:44:12;6.90;99.90
52889;DHT22;41413;52.770;6.892;2022-09-21T05:46:57;6.90;99.90
52889;DHT22;41413;52.770;6.892;2022-09-21T05:57:25;6.90;99.90
52889;DHT22;41413;52.770;6.892;2022-09-21T06:00:02;7.00;99.90
52889;DHT22;41413;52.770;6.892;2022-09-21T06:05:18;7.00;99.90
52889;DHT22;41413;52.770;6.892;2022-09-21T06:07:44;7.00;99.90
52889;DHT22;41413;52.770;6.892;2022-09-21T06:10:12;7.10;99.90
52889;DHT22;41413;52.770;6.892;2022-09-21T06:12:39;7.20;99.90
52889;DHT22;41413;52.770;6.892;2022-09-21T06:15:08;7.20;99.90
52889;DHT22;41413;52.770;6.892;2022-09-21T06:17:36;7.30;99.90
52889;DHT22;41413;52.770;6.892;2022-09-21T06:20:03;7.40;99.90
52889;DHT22;41413;52.770;6.892;2022-09-21T06:22:32;7.40;99.90
52889;DHT22;41413;52.770;6.892;2022-09-21T06:24:59;7.40;99.90
52889;DHT22;41413;52.770;6.892;2022-09-21T06:27:27;7.50;99.90
52889;DHT22;41413;52.770;6.892;2022-09-21T06:29:54;7.50;99.90
52889;DHT22;41413;52.770;6.892;2022-09-21T06:32:20;7.50;99.90
52889;DHT22;41413;52.770;6.892;2022-09-21T06:34:47;7.60;99.90
52889;DHT22;41413;52.770;6.892;2022-09-21T06:37:15;7.70;99.90
52889;DHT22;41413;52.770;6.892;2022-09-21T06:39:42;7.70;99.90
52889;DHT22;41413;52.770;6.892;2022-09-21T06:42:08;7.80;99.90
52889;DHT22;41413;52.770;6.892;2022-09-21T06:44:35;7.80;99.90
52889;DHT22;41413;52.770;6.892;2022-09-21T06:47:02;7.90;99.90
52889;DHT22;41413;52.770;6.892;2022-09-21T06:49:28;7.90;99.90
52889;DHT22;41413;52.770;6.892;2022-09-21T06:51:55;8.00;99.90
52889;DHT22;41413;52.770;6.892;2022-09-21T06:54:22;8.10;99.90
52889;DHT22;41413;52.770;6.892;2022-09-21T06:56:49;8.10;99.90
52889;DHT22;41413;52.770;6.892;2022-09-21T06:59:16;8.20;99.90
52889;DHT22;41413;52.770;6.892;2022-09-21T07:01:43;8.30;99.90
52889;DHT22;41413;52.770;6.892;2022-09-21T07:04:10;8.40;99.90
52889;DHT22;41413;52.770;6.892;2022-09-21T07:06:36;8.50;99.90
52889;DHT22;41413;52.770;6.892;2022-09-21T07:09:03;8.60;99.90
52889;DHT22;41413;52.770;6.892;2022-09-21T07:11:49;8.60;99.90
52889;DHT22;41413;52.770;6.892;2022-09-21T07:14:16;8.80;99.90
52889;DHT22;41413;52.770;6.892;2022-09-21T07:16:43;8.80;99.90
52889;DHT22;41413;52.770;6.892;2022-09-21T07:19:09;8.90;99.90
52889;DHT22;41413;52.770;6.892;2022-09-21T07:21:37;9.10;99.90
52889;DHT22;41413;52.770;6.892;2022-09-21T07:24:04;9.20;99.90
52889;DHT22;41413;52.770;6.892;2022-09-21T07:26:38;9.50;99.90
52889;DHT22;41413;52.770;6.892;2022-09-21T07:29:05;9.60;99.90
52889;DHT22;41413;52.770;6.892;2022-09-21T07:31:32;9.80;99.90
52889;DHT22;41413;52.770;6.892;2022-09-21T07:33:59;10.00;99.90
52889;DHT22;41413;52.770;6.892;2022-09-21T07:36:25;10.10;99.90
52889;DHT22;41413;52.770;6.892;2022-09-21T07:38:52;10.30;99.90
52889;DHT22;41413;52.770;6.892;2022-09-21T07:41:19;10.30;99.90
52889;DHT22;41413;52.770;6.892;2022-09-21T07:43:46;10.40;99.90
52889;DHT22;41413;52.770;6.892;2022-09-21T07:46:14;10.50;99.90
52889;DHT22;41413;52.770;6.892;2022-09-21T07:48:40;10.80;99.90
52889;DHT22;41413;52.770;6.892;2022-09-21T07:51:09;11.80;99.90
52889;DHT22;41413;52.770;6.892;2022-09-21T07:53:38;13.70;99.90
52889;DHT22;41413;52.770;6.892;2022-09-21T07:56:08;15.20;99.90
52889;DHT22;41413;52.770;6.892;2022-09-21T07:58:36;16.60;99.90
52889;DHT22;41413;52.770;6.892;2022-09-21T08:01:22;17.70;99.90
52889;DHT22;41413;52.770;6.892;2022-09-21T08:03:50;18.70;99.90
52889;DHT22;41413;52.770;6.892;2022-09-21T08:06:17;19.30;99.90
52889;DHT22;41413;52.770;6.892;2022-09-21T08:08:44;20.00;99.90
52889;DHT22;41413;52.770;6.892;2022-09-21T08:11:18;20.30;99.90
52889;DHT22;41413;52.770;6.892;2022-09-21T08:13:49;20.80;99.90
52889;DHT22;41413;52.770;6.892;2022-09-21T08:16:17;21.20;99.90
52889;DHT22;41413;52.770;6.892;2022-09-21T08:18:44;21.20;99.90
52889;DHT22;41413;52.770;6.892;2022-09-21T08:21:12;21.90;98.90
52889;DHT22;41413;52.770;6.892;2022-09-21T08:23:39;22.00;98.50
52889;DHT22;41413;52.770;6.892;2022-09-21T08:26:12;22.20;95.20
52889;DHT22;41413;52.770;6.892;2022-09-21T08:28:45;22.60;97.40
52889;DHT22;41413;52.770;6.892;2022-09-21T08:31:17;22.60;97.70
52889;DHT22;41413;52.770;6.892;2022-09-21T08:33:46;23.00;96.10
52889;DHT22;41413;52.770;6.892;2022-09-21T08:36:12;23.40;96.00
52889;DHT22;41413;52.770;6.892;2022-09-21T08:38:39;23.20;95.00
52889;DHT22;41413;52.770;6.892;2022-09-21T08:41:21;23.00;93.70
52889;DHT22;41413;52.770;6.892;2022-09-21T08:44:16;23.20;92.30
52889;DHT22;41413;52.770;6.892;2022-09-21T08:46:45;23.40;92.70
52889;DHT22;41413;52.770;6.892;2022-09-21T08:49:20;23.40;91.20
52889;DHT22;41413;52.770;6.892;2022-09-21T08:51:53;23.60;92.60
52889;DHT22;41413;52.770;6.892;2022-09-21T08:57:00;24.00;89.80
52889;DHT22;41413;52.770;6.892;2022-09-21T08:59:32;24.30;90.90
52889;DHT22;41413;52.770;6.892;2022-09-21T09:13:52;24.70;84.10
52889;DHT22;41413;52.770;6.892;2022-09-21T09:21:43;23.40;85.80
52889;DHT22;41413;52.770;6.892;2022-09-21T09:27:36;22.90;88.90
52889;DHT22;41413;52.770;6.892;2022-09-21T09:30:15;22.20;88.40
52889;DHT22;41413;52.770;6.892;2022-09-21T09:32:53;21.50;90.50
52889;DHT22;41413;52.770;6.892;2022-09-21T09:38:29;20.80;92.00
52889;DHT22;41413;52.770;6.892;2022-09-21T09:52:23;21.00;93.90
52889;DHT22;41413;52.770;6.892;2022-09-21T09:54:50;21.20;93.00
52889;DHT22;41413;52.770;6.892;2022-09-21T09:57:26;21.00;91.70
52889;DHT22;41413;52.770;6.892;2022-09-21T09:59:57;21.10;91.40
52889;DHT22;41413;52.770;6.892;2022-09-21T10:02:26;21.10;92.10
52889;DHT22;41413;52.770;6.892;2022-09-21T10:05:01;21.50;92.70
52889;DHT22;41413;52.770;6.892;2022-09-21T10:07:38;22.10;90.90
52889;DHT22;41413;52.770;6.892;2022-09-21T10:10:35;21.90;88.70
52889;DHT22;41413;52.770;6.892;2022-09-21T10:13:12;21.40;88.50
52889;DHT22;41413;52.770;6.892;2022-09-21T10:15:59;20.50;88.60
52889;DHT22;41413;52.770;6.892;2022-09-21T10:18:42;21.20;90.60
52889;DHT22;41413;52.770;6.892;2022-09-21T10:21:20;22.00;90.10
52889;DHT22;41413;52.770;6.892;2022-09-21T10:23:58;22.60;88.70
52889;DHT22;41413;52.770;6.892;2022-09-21T10:26:31;23.00;88.30
52889;DHT22;41413;52.770;6.892;2022-09-21T10:29:02;23.10;87.50
52889;DHT22;41413;52.770;6.892;2022-09-21T10:34:23;23.20;89.40
52889;DHT22;41413;52.770;6.892;2022-09-21T10:36:53;23.40;87.60
52889;DHT22;41413;52.770;6.892;2022-09-21T10:41:55;22.40;83.80
52889;DHT22;41413;52.770;6.892;2022-09-21T10:44:27;21.50;86.10
52889;DHT22;41413;52.770;6.892;2022-09-21T10:46:54;20.90;85.20
52889;DHT22;41413;52.770;6.892;2022-09-21T10:49:24;21.00;85.80
52889;DHT22;41413;52.770;6.892;2022-09-21T10:51:55;21.10;86.20
52889;DHT22;41413;52.770;6.892;2022-09-21T10:54:31;21.30;85.20
52889;DHT22;41413;52.770;6.892;2022-09-21T10:57:01;21.70;82.90
52889;DHT22;41413;52.770;6.892;2022-09-21T10:59:34;21.00;83.80
52889;DHT22;41413;52.770;6.892;2022-09-21T11:02:21;21.30;85.40
52889;DHT22;41413;52.770;6.892;2022-09-21T11:04:52;21.20;85.10
52889;DHT22;41413;52.770;6.892;2022-09-21T11:07:34;20.90;85.50
52889;DHT22;41413;52.770;6.892;2022-09-21T11:10:12;20.60;85.50
52889;DHT22;41413;52.770;6.892;2022-09-21T11:12:47;20.30;86.60
52889;DHT22;41413;52.770;6.892;2022-09-21T11:18:02;20.60;87.40
52889;DHT22;41413;52.770;6.892;2022-09-21T11:20:44;21.00;87.20
52889;DHT22;41413;52.770;6.892;2022-09-21T11:31:38;22.10;85.80
52889;DHT22;41413;52.770;6.892;2022-09-21T11:34:15;22.00;85.80
52889;DHT22;41413;52.770;6.892;2022-09-21T11:39:58;21.60;87.70
52889;DHT22;41413;52.770;6.892;2022-09-21T11:42:51;21.90;84.10
52889;DHT22;41413;52.770;6.892;2022-09-21T11:54:16;22.20;81.30
52889;DHT22;41413;52.770;6.892;2022-09-21T11:57:24;21.90;82.20
52889;DHT22;41413;52.770;6.892;2022-09-21T12:00:04;21.90;82.70
52889;DHT22;41413;52.770;6.892;2022-09-21T12:11:29;21.50;80.10
52889;DHT22;41413;52.770;6.892;2022-09-21T12:19:40;21.30;82.50
52889;DHT22;41413;52.770;6.892;2022-09-21T12:22:21;21.10;80.40
52889;DHT22;41413;52.770;6.892;2022-09-21T12:24:52;21.00;79.60
52889;DHT22;41413;52.770;6.892;2022-09-21T12:27:28;20.70;80.60
52889;DHT22;41413;52.770;6.892;2022-09-21T12:30:11;20.90;80.10
52889;DHT22;41413;52.770;6.892;2022-09-21T12:33:05;20.90;79.90
52889;DHT22;41413;52.770;6.892;2022-09-21T12:35:45;20.90;80.30
52889;DHT22;41413;52.770;6.892;2022-09-21T12:38:17;21.10;80.30
52889;DHT22;41413;52.770;6.892;2022-09-21T12:43:37;21.10;77.70
52889;DHT22;41413;52.770;6.892;2022-09-21T12:49:00;20.80;78.20
52889;DHT22;41413;52.770;6.892;2022-09-21T12:51:33;20.20;79.50
52889;DHT22;41413;52.770;6.892;2022-09-21T12:54:11;20.30;79.10
52889;DHT22;41413;52.770;6.892;2022-09-21T12:56:47;20.30;78.80
52889;DHT22;41413;52.770;6.892;2022-09-21T12:59:49;20.30;78.10
52889;DHT22;41413;52.770;6.892;2022-09-21T13:05:06;20.50;78.60
52889;DHT22;41413;52.770;6.892;2022-09-21T13:13:00;20.40;78.30
52889;DHT22;41413;52.770;6.892;2022-09-21T13:15:32;20.10;78.20
52889;DHT22;41413;52.770;6.892;2022-09-21T13:20:43;20.00;79.30
52889;DHT22;41413;52.770;6.892;2022-09-21T13:23:17;20.10;79.40
52889;DHT22;41413;52.770;6.892;2022-09-21T13:26:01;20.10;77.90
52889;DHT22;41413;52.770;6.892;2022-09-21T13:34:18;19.70;77.80
52889;DHT22;41413;52.770;6.892;2022-09-21T13:39:34;20.00;77.70
52889;DHT22;41413;52.770;6.892;2022-09-21T13:44:54;20.20;77.50
52889;DHT22;41413;52.770;6.892;2022-09-21T13:47:32;20.20;78.00
52889;DHT22;41413;52.770;6.892;2022-09-21T13:50:09;20.20;77.80
52889;DHT22;41413;52.770;6.892;2022-09-21T13:52:47;20.10;76.80
52889;DHT22;41413;52.770;6.892;2022-09-21T13:58:26;20.20;76.80
52889;DHT22;41413;52.770;6.892;2022-09-21T14:00:57;20.20;77.40
52889;DHT22;41413;52.770;6.892;2022-09-21T14:03:34;20.10;76.50
52889;DHT22;41413;52.770;6.892;2022-09-21T14:06:34;20.30;77.80
52889;DHT22;41413;52.770;6.892;2022-09-21T14:12:01;20.30;76.70
52889;DHT22;41413;52.770;6.892;2022-09-21T14:14:34;20.40;76.10
52889;DHT22;41413;52.770;6.892;2022-09-21T14:17:04;20.30;77.00
52889;DHT22;41413;52.770;6.892;2022-09-21T14:24:44;20.20;75.00
52889;DHT22;41413;52.770;6.892;2022-09-21T14:27:26;20.20;75.30
52889;DHT22;41413;52.770;6.892;2022-09-21T14:30:20;20.20;75.70
52889;DHT22;41413;52.770;6.892;2022-09-21T14:33:15;20.10;75.00
52889;DHT22;41413;52.770;6.892;2022-09-21T14:35:43;20.10;73.40
52889;DHT22;41413;52.770;6.892;2022-09-21T14:38:18;20.10;74.80
52889;DHT22;41413;52.770;6.892;2022-09-21T14:40:50;20.10;74.90
52889;DHT22;41413;52.770;6.892;2022-09-21T14:43:29;20.00;75.30
52889;DHT22;41413;52.770;6.892;2022-09-21T14:52:33;19.90;74.50
52889;DHT22;41413;52.770;6.892;2022-09-21T14:55:19;19.90;75.40
52889;DHT22;41413;52.770;6.892;2022-09-21T14:58:16;19.80;75.70
52889;DHT22;41413;52.770;6.892;2022-09-21T15:00:47;19.70;75.90
52889;DHT22;41413;52.770;6.892;2022-09-21T15:12:35;19.50;75.80
52889;DHT22;41413;52.770;6.892;2022-09-21T15:15:20;19.30;75.90
